Bena, Minnesota
Current Conditions -  °F | °C
As of 1:35 AM on Saturday 25 Oct 2014 (Local Time) from KY49 Reporting Station
Clear Clear  
Wind Chill: 52°   Ceiling: Unl
Heat Index: 52°   Visibility: 10mi
Dew Point: 32°   Wind: 9mph
Humidity: 46%   Direction: 290°WNW
Pressure: 29.88"   Gusts: 18mph
Location:  47.34°N, 94.21°W
Report Text: KY49 250635Z AUTO 29008G16KT 10SM CLR 11/00 A2988 RMK AO2 T01130000
Loading
Personal Weather Stations






























Interactive Weather Map
Tropical Storm Tracking
New forecast layout! Learn more

10-Day Weather Forecast

Advertisements
Track Severe Weather on mobile